Time,TemperatureF,DewpointF,PressureIn,WindDirection,WindDirectionDegrees,WindSpeedMPH,WindSpeedGustMPH,Humidity,HourlyPrecipIn,Conditions,Clouds,dailyrainin,SolarRadiationWatts/m^2,SoftwareType,DateUTC
2013-07-09 00:02:00,61.6,47.6,29.79,NW,306,0.0,1.0,60,0.00,,,0.00,0,Wunderground v.1.15,2013-07-09 07:02:00,
2013-07-09 00:12:00,61.9,47.0,29.79,West,263,1.0,1.0,58,0.00,,,0.00,0,Wunderground v.1.15,2013-07-09 07:12:00,
2013-07-09 00:22:00,62.9,46.0,29.79,West,275,1.0,1.0,54,0.00,,,0.00,0,Wunderground v.1.15,2013-07-09 07:22:00,
2013-07-09 00:32:00,61.6,46.7,29.79,West,278,1.0,1.0,58,0.00,,,0.00,0,Wunderground v.1.15,2013-07-09 07:32:00,
2013-07-09 00:42:00,62.0,45.6,29.79,SW,216,1.0,3.0,55,0.00,,,0.00,0,Wunderground v.1.15,2013-07-09 07:42:00,
2013-07-09 00:52:00,60.7,46.7,29.79,WNW,283,1.0,1.0,60,0.00,,,0.00,0,Wunderground v.1.15,2013-07-09 07:52:00,
2013-07-09 01:02:00,60.9,45.6,29.78,WNW,285,0.0,0.0,57,0.00,,,0.00,0,Wunderground v.1.15,2013-07-09 08:02:00,
2013-07-09 01:12:00,60.2,45.8,29.79,NW,325,1.0,1.0,59,0.00,,,0.00,0,Wunderground v.1.15,2013-07-09 08:12:00,
2013-07-09 01:22:00,60.3,45.0,29.78,SW,230,2.0,2.0,57,0.00,,,0.00,0,Wunderground v.1.15,2013-07-09 08:22:00,
2013-07-09 01:32:00,60.5,45.6,29.78,NE,46,2.0,2.0,58,0.00,,,0.00,0,Wunderground v.1.15,2013-07-09 08:32:00,
2013-07-09 01:42:00,61.2,44.9,29.79,North,360,0.0,0.0,55,0.00,,,0.00,0,Wunderground v.1.15,2013-07-09 08:42:00,
2013-07-09 01:52:00,61.8,44.0,29.79,WSW,249,1.0,3.0,52,0.00,,,0.00,0,Wunderground v.1.15,2013-07-09 08:52:00,
2013-07-09 02:02:00,65.0,40.1,29.79,NW,320,1.0,4.0,40,0.00,,,0.00,0,Wunderground v.1.15,2013-07-09 09:02:00,
2013-07-09 02:12:00,70.8,37.0,29.79,NW,308,6.0,6.0,29,0.00,,,0.00,0,Wunderground v.1.15,2013-07-09 09:12:00,
2013-07-09 02:22:00,73.3,35.3,29.78,West,260,7.0,7.0,25,0.00,,,0.00,0,Wunderground v.1.15,2013-07-09 09:22:00,
2013-07-09 02:32:00,74.4,35.2,29.79,WNW,298,6.0,6.0,24,0.00,,,0.00,0,Wunderground v.1.15,2013-07-09 09:32:00,
2013-07-09 02:42:00,74.5,35.3,29.79,North,1,3.0,3.0,24,0.00,,,0.00,0,Wunderground v.1.15,2013-07-09 09:42:00,
2013-07-09 02:52:00,68.4,37.4,29.79,SE,131,0.0,0.0,32,0.00,,,0.00,0,Wunderground v.1.15,2013-07-09 09:52:00,
2013-07-09 03:02:00,67.0,38.4,29.79,SE,131,0.0,0.0,35,0.00,,,0.00,0,Wunderground v.1.15,2013-07-09 10:02:00,
2013-07-09 03:12:00,65.3,38.3,29.79,WSW,239,0.0,1.0,37,0.00,,,0.00,0,Wunderground v.1.15,2013-07-09 10:12:00,
2013-07-09 03:22:00,64.3,40.1,29.79,SW,234,0.0,2.0,41,0.00,,,0.00,0,Wunderground v.1.15,2013-07-09 10:22:00,
2013-07-09 03:32:00,66.0,39.0,29.79,SW,234,0.0,0.0,37,0.00,,,0.00,0,Wunderground v.1.15,2013-07-09 10:32:00,
2013-07-09 03:42:00,63.8,40.9,29.79,SW,234,1.0,1.0,43,0.00,,,0.00,0,Wunderground v.1.15,2013-07-09 10:42:00,
2013-07-09 03:52:00,62.7,39.9,29.78,SW,234,0.0,0.0,43,0.00,,,0.00,0,Wunderground v.1.15,2013-07-09 10:52:00,
2013-07-09 04:02:00,64.3,38.1,29.79,SW,234,0.0,1.0,38,0.00,,,0.00,0,Wunderground v.1.15,2013-07-09 11:02:00,
2013-07-09 04:12:00,62.7,40.5,29.79,SSE,167,0.0,0.0,44,0.00,,,0.00,0,Wunderground v.1.15,2013-07-09 11:12:00,
2013-07-09 04:22:00,57.3,41.3,29.79,SSE,167,0.0,0.0,55,0.00,,,0.00,0,Wunderground v.1.15,2013-07-09 11:22:00,
2013-07-09 04:32:00,57.5,41.4,29.79,SSE,167,0.0,0.0,55,0.00,,,0.00,0,Wunderground v.1.15,2013-07-09 11:32:00,
2013-07-09 04:42:00,58.9,39.2,29.79,WNW,289,0.0,0.0,48,0.00,,,0.00,0,Wunderground v.1.15,2013-07-09 11:42:00,
2013-07-09 04:52:00,61.4,39.3,29.80,WNW,289,0.0,0.0,44,0.00,,,0.00,0,Wunderground v.1.15,2013-07-09 11:52:00,
2013-07-09 05:02:00,62.0,39.8,29.80,WNW,287,0.0,0.0,44,0.00,,,0.00,0,Wunderground v.1.15,2013-07-09 12:02:00,
2013-07-09 05:12:00,63.5,38.7,29.81,WNW,296,0.0,0.0,40,0.00,,,0.00,0,Wunderground v.1.15,2013-07-09 12:12:00,
2013-07-09 05:22:00,63.9,39.7,29.81,WNW,296,0.0,0.0,41,0.00,,,0.00,7,Wunderground v.1.15,2013-07-09 12:22:00,
2013-07-09 05:32:00,60.8,39.9,29.81,SW,231,0.0,0.0,46,0.00,,,0.00,14,Wunderground v.1.15,2013-07-09 12:32:00,
2013-07-09 05:42:00,60.3,41.6,29.81,SW,226,1.0,1.0,50,0.00,,,0.00,26,Wunderground v.1.15,2013-07-09 12:42:00,
2013-07-09 05:52:00,62.4,41.9,29.81,SW,232,0.0,0.0,47,0.00,,,0.00,39,Wunderground v.1.15,2013-07-09 12:52:00,
2013-07-09 06:02:00,63.9,43.3,29.82,SE,132,0.0,0.0,47,0.00,,,0.00,46,Wunderground v.1.15,2013-07-09 13:02:00,
2013-07-09 06:12:00,65.7,44.9,29.82,SE,132,0.0,0.0,47,0.00,,,0.00,47,Wunderground v.1.15,2013-07-09 13:12:00,
2013-07-09 06:22:00,67.2,45.1,29.82,North,2,1.0,1.0,45,0.00,,,0.00,54,Wunderground v.1.15,2013-07-09 13:22:00,
2013-07-09 06:32:00,64.3,45.3,29.82,NNW,339,0.0,4.0,50,0.00,,,0.00,58,Wunderground v.1.15,2013-07-09 13:32:00,
2013-07-09 06:42:00,72.1,39.8,29.82,NNW,344,2.0,4.0,31,0.00,,,0.00,62,Wunderground v.1.15,2013-07-09 13:42:00,
2013-07-09 06:52:00,74.6,39.3,29.82,NNW,344,3.0,4.0,28,0.00,,,0.00,60,Wunderground v.1.15,2013-07-09 13:52:00,
2013-07-09 07:02:00,76.6,37.1,29.82,NNW,330,6.0,7.0,24,0.00,,,0.00,70,Wunderground v.1.15,2013-07-09 14:02:00,
2013-07-09 07:12:00,77.6,36.8,29.83,NW,315,3.0,4.0,23,0.00,,,0.00,70,Wunderground v.1.15,2013-07-09 14:12:00,
2013-07-09 07:22:00,78.3,38.5,29.83,North,357,3.0,3.0,24,0.00,,,0.00,200,Wunderground v.1.15,2013-07-09 14:22:00,
2013-07-09 07:32:00,75.5,42.7,29.83,SSE,165,2.0,2.0,31,0.00,,,0.00,338,Wunderground v.1.15,2013-07-09 14:32:00,
2013-07-09 07:42:00,76.5,41.9,29.83,East,97,1.0,3.0,29,0.00,,,0.00,380,Wunderground v.1.15,2013-07-09 14:42:00,
2013-07-09 07:52:00,78.9,40.1,29.83,SE,124,2.0,2.0,25,0.00,,,0.00,401,Wunderground v.1.15,2013-07-09 14:52:00,
2013-07-09 08:02:00,78.9,40.1,29.83,ESE,122,1.0,4.0,25,0.00,,,0.00,338,Wunderground v.1.15,2013-07-09 15:02:00,
2013-07-09 08:12:00,79.0,40.2,29.83,SE,128,3.0,3.0,25,0.00,,,0.00,454,Wunderground v.1.15,2013-07-09 15:12:00,
2013-07-09 08:22:00,81.2,36.3,29.83,NNE,22,3.0,4.0,20,0.00,,,0.00,446,Wunderground v.1.15,2013-07-09 15:22:00,
2013-07-09 08:32:00,81.3,35.1,29.83,North,356,5.0,5.0,19,0.00,,,0.00,422,Wunderground v.1.15,2013-07-09 15:32:00,
2013-07-09 08:42:00,80.6,35.8,29.83,NNE,21,5.0,5.0,20,0.00,,,0.00,278,Wunderground v.1.15,2013-07-09 15:42:00,
2013-07-09 08:52:00,80.8,36.0,29.83,North,356,3.0,6.0,20,0.00,,,0.00,357,Wunderground v.1.15,2013-07-09 15:52:00,
2013-07-09 09:02:00,81.0,36.1,29.83,North,359,4.0,5.0,20,0.00,,,0.00,424,Wunderground v.1.15,2013-07-09 16:02:00,
2013-07-09 09:12:00,80.8,36.0,29.83,NNE,13,4.0,4.0,20,0.00,,,0.00,255,Wunderground v.1.15,2013-07-09 16:12:00,
2013-07-09 09:22:00,81.9,35.6,29.83,NE,45,2.0,3.0,19,0.00,,,0.00,652,Wunderground v.1.15,2013-07-09 16:22:00,
2013-07-09 09:32:00,82.5,36.1,29.83,NE,44,2.0,5.0,19,0.00,,,0.00,589,Wunderground v.1.15,2013-07-09 16:32:00,
2013-07-09 09:42:00,82.4,42.0,29.83,East,90,2.0,2.0,24,0.00,,,0.00,404,Wunderground v.1.15,2013-07-09 16:42:00,
2013-07-09 09:52:00,82.1,42.8,29.83,SSE,154,1.0,1.0,25,0.00,,,0.00,561,Wunderground v.1.15,2013-07-09 16:52:00,
2013-07-09 10:02:00,82.4,43.0,29.83,ESE,119,1.0,2.0,25,0.00,,,0.00,722,Wunderground v.1.15,2013-07-09 17:02:00,
2013-07-09 10:12:00,84.0,43.3,29.83,ESE,103,2.0,3.0,24,0.00,,,0.00,881,Wunderground v.1.15,2013-07-09 17:12:00,
2013-07-09 10:22:00,85.9,38.8,29.83,North,351,2.0,3.0,19,0.00,,,0.00,911,Wunderground v.1.15,2013-07-09 17:22:00,
2013-07-09 10:32:00,85.8,37.4,29.83,NW,320,4.0,4.0,18,0.00,,,0.00,773,Wunderground v.1.15,2013-07-09 17:32:00,
2013-07-09 10:42:00,86.4,37.9,29.83,NW,313,6.0,8.0,18,0.00,,,0.00,965,Wunderground v.1.15,2013-07-09 17:42:00,
2013-07-09 10:52:00,87.1,37.0,29.83,NW,320,7.0,7.0,17,0.00,,,0.00,884,Wunderground v.1.15,2013-07-09 17:52:00,
2013-07-09 11:02:00,86.0,36.1,29.82,NW,325,4.0,9.0,17,0.00,,,0.00,747,Wunderground v.1.15,2013-07-09 18:02:00,
2013-07-09 11:12:00,86.6,38.0,29.82,NNW,330,8.0,8.0,18,0.00,,,0.00,865,Wunderground v.1.15,2013-07-09 18:12:00,
2013-07-09 11:22:00,86.9,35.3,29.82,WNW,299,7.0,7.0,16,0.00,,,0.00,812,Wunderground v.1.15,2013-07-09 18:22:00,
2013-07-09 11:32:00,87.0,38.4,29.82,North,355,5.0,11.0,18,0.00,,,0.00,940,Wunderground v.1.15,2013-07-09 18:32:00,
2013-07-09 11:42:00,87.8,37.6,29.81,North,351,7.0,7.0,17,0.00,,,0.00,963,Wunderground v.1.15,2013-07-09 18:42:00,
2013-07-09 11:52:00,88.0,37.7,29.81,NNW,330,6.0,6.0,17,0.00,,,0.00,1032,Wunderground v.1.15,2013-07-09 18:52:00,
2013-07-09 12:02:00,88.0,37.7,29.81,North,7,4.0,4.0,17,0.00,,,0.00,954,Wunderground v.1.15,2013-07-09 19:02:00,
2013-07-09 12:12:00,88.5,38.1,29.80,North,352,3.0,11.0,17,0.00,,,0.00,865,Wunderground v.1.15,2013-07-09 19:12:00,
2013-07-09 12:22:00,88.7,38.3,29.80,WNW,285,6.0,6.0,17,0.00,,,0.00,837,Wunderground v.1.15,2013-07-09 19:22:00,
2013-07-09 12:32:00,88.0,37.7,29.79,NE,46,5.0,6.0,17,0.00,,,0.00,868,Wunderground v.1.15,2013-07-09 19:32:00,
2013-07-09 12:42:00,89.0,35.3,29.79,West,264,3.0,3.0,15,0.00,,,0.00,1072,Wunderground v.1.15,2013-07-09 19:42:00,
2013-07-09 12:52:00,89.6,35.8,29.79,East,83,6.0,6.0,15,0.00,,,0.00,993,Wunderground v.1.15,2013-07-09 19:52:00,
2013-07-09 13:02:00,89.4,37.3,29.78,SW,232,3.0,3.0,16,0.00,,,0.00,926,Wunderground v.1.15,2013-07-09 20:02:00,
2013-07-09 13:12:00,89.2,37.1,29.78,NE,36,6.0,6.0,16,0.00,,,0.00,566,Wunderground v.1.15,2013-07-09 20:12:00,
2013-07-09 13:22:00,88.8,36.8,29.77,ENE,61,4.0,4.0,16,0.00,,,0.00,649,Wunderground v.1.15,2013-07-09 20:22:00,
2013-07-09 13:32:00,87.8,36.0,29.78,NNE,19,5.0,6.0,16,0.00,,,0.00,563,Wunderground v.1.15,2013-07-09 20:32:00,
2013-07-09 13:42:00,88.5,34.9,29.77,North,357,5.0,5.0,15,0.00,,,0.00,578,Wunderground v.1.15,2013-07-09 20:42:00,
2013-07-09 13:52:00,87.6,35.9,29.77,East,84,5.0,5.0,16,0.00,,,0.00,462,Wunderground v.1.15,2013-07-09 20:52:00,
2013-07-09 14:02:00,87.5,37.3,29.77,NNE,25,1.0,1.0,17,0.00,,,0.00,638,Wunderground v.1.15,2013-07-09 21:02:00,
2013-07-09 14:12:00,89.0,37.0,29.76,WNW,298,2.0,7.0,16,0.00,,,0.00,707,Wunderground v.1.15,2013-07-09 21:12:00,
2013-07-09 14:22:00,88.9,36.9,29.76,NNW,337,5.0,9.0,16,0.00,,,0.00,584,Wunderground v.1.15,2013-07-09 21:22:00,
2013-07-09 14:32:00,88.1,32.9,29.76,NW,320,8.0,8.0,14,0.00,,,0.00,520,Wunderground v.1.15,2013-07-09 21:32:00,
2013-07-09 14:42:00,90.3,32.8,29.76,West,274,7.0,7.0,13,0.00,,,0.00,921,Wunderground v.1.15,2013-07-09 21:42:00,
2013-07-09 14:52:00,90.4,34.7,29.75,NNW,337,6.0,6.0,14,0.00,,,0.00,867,Wunderground v.1.15,2013-07-09 21:52:00,
2013-07-09 15:02:00,89.8,32.4,29.75,NNW,343,7.0,7.0,13,0.00,,,0.00,928,Wunderground v.1.15,2013-07-09 22:02:00,
2013-07-09 15:12:00,90.2,32.7,29.75,NW,320,5.0,9.0,13,0.00,,,0.00,775,Wunderground v.1.15,2013-07-09 22:12:00,
2013-07-09 15:22:00,90.1,34.5,29.74,NNW,342,5.0,10.0,14,0.00,,,0.00,879,Wunderground v.1.15,2013-07-09 22:22:00,
2013-07-09 15:32:00,89.9,32.5,29.73,WNW,300,8.0,8.0,13,0.00,,,0.00,728,Wunderground v.1.15,2013-07-09 22:32:00,
2013-07-09 15:42:00,88.8,33.4,29.73,North,355,6.0,9.0,14,0.00,,,0.00,345,Wunderground v.1.15,2013-07-09 22:42:00,
2013-07-09 15:52:00,88.5,34.9,29.73,NW,325,8.0,8.0,15,0.00,,,0.00,570,Wunderground v.1.15,2013-07-09 22:52:00,
2013-07-09 16:02:00,89.3,35.6,29.73,North,9,7.0,7.0,15,0.00,,,0.00,529,Wunderground v.1.15,2013-07-09 23:02:00,
2013-07-09 16:12:00,89.3,33.8,29.72,NNW,336,4.0,7.0,14,0.00,,,0.00,512,Wunderground v.1.15,2013-07-09 23:12:00,
2013-07-09 16:22:00,89.7,35.9,29.72,NW,320,7.0,7.0,15,0.00,,,0.00,696,Wunderground v.1.15,2013-07-09 23:22:00,
2013-07-09 16:32:00,89.2,33.8,29.72,North,7,8.0,8.0,14,0.00,,,0.00,680,Wunderground v.1.15,2013-07-09 23:32:00,
2013-07-09 16:42:00,89.3,33.8,29.71,North,358,3.0,3.0,14,0.00,,,0.00,605,Wunderground v.1.15,2013-07-09 23:42:00,
2013-07-09 16:52:00,89.5,32.2,29.71,WNW,299,2.0,3.0,13,0.00,,,0.00,577,Wunderground v.1.15,2013-07-09 23:52:00,
2013-07-09 17:02:00,89.4,32.1,29.71,NNW,341,6.0,7.0,13,0.00,,,0.00,515,Wunderground v.1.15,2013-07-10 00:02:00,
2013-07-09 17:12:00,89.0,33.6,29.71,NNW,337,5.0,5.0,14,0.00,,,0.00,206,Wunderground v.1.15,2013-07-10 00:12:00,
2013-07-09 17:22:00,88.1,31.1,29.71,WNW,290,7.0,7.0,13,0.00,,,0.00,332,Wunderground v.1.15,2013-07-10 00:22:00,
2013-07-09 17:32:00,87.9,32.7,29.71,WSW,253,5.0,6.0,14,0.00,,,0.00,348,Wunderground v.1.15,2013-07-10 00:32:00,
2013-07-09 17:42:00,87.9,32.7,29.71,North,11,4.0,4.0,14,0.00,,,0.00,341,Wunderground v.1.15,2013-07-10 00:42:00,
2013-07-09 17:52:00,87.8,30.8,29.71,WNW,288,4.0,6.0,13,0.00,,,0.00,250,Wunderground v.1.15,2013-07-10 00:52:00,
2013-07-09 18:02:00,87.2,32.2,29.71,NNW,340,5.0,5.0,14,0.00,,,0.00,230,Wunderground v.1.15,2013-07-10 01:02:00,
2013-07-09 18:12:00,87.4,34.1,29.71,NNW,340,1.0,3.0,15,0.00,,,0.00,271,Wunderground v.1.15,2013-07-10 01:12:00,
2013-07-09 18:22:00,87.2,32.2,29.71,NNW,342,4.0,4.0,14,0.00,,,0.00,269,Wunderground v.1.15,2013-07-10 01:22:00,
2013-07-09 18:32:00,86.1,31.3,29.70,North,353,4.0,4.0,14,0.00,,,0.00,197,Wunderground v.1.15,2013-07-10 01:32:00,
2013-07-09 18:42:00,85.6,30.9,29.70,NW,315,4.0,4.0,14,0.00,,,0.00,65,Wunderground v.1.15,2013-07-10 01:42:00,
2013-07-09 18:52:00,84.7,30.2,29.70,NW,313,4.0,4.0,14,0.00,,,0.00,127,Wunderground v.1.15,2013-07-10 01:52:00,
2013-07-09 19:02:00,84.1,31.4,29.70,WNW,303,3.0,3.0,15,0.00,,,0.00,39,Wunderground v.1.15,2013-07-10 02:02:00,
2013-07-09 19:12:00,82.6,31.8,29.70,WNW,285,1.0,2.0,16,0.00,,,0.00,26,Wunderground v.1.15,2013-07-10 02:12:00,
2013-07-09 19:22:00,81.4,32.4,29.70,WNW,290,1.0,3.0,17,0.00,,,0.00,18,Wunderground v.1.15,2013-07-10 02:22:00,
2013-07-09 19:32:00,80.5,33.1,29.70,WNW,291,2.0,2.0,18,0.00,,,0.00,9,Wunderground v.1.15,2013-07-10 02:32:00,
2013-07-09 19:42:00,77.8,34.7,29.69,NW,320,0.0,2.0,21,0.00,,,0.00,5,Wunderground v.1.15,2013-07-10 02:42:00,
2013-07-09 19:52:00,75.4,38.1,29.69,NNW,338,1.0,1.0,26,0.00,,,0.00,0,Wunderground v.1.15,2013-07-10 02:52:00,
2013-07-09 20:02:00,74.0,37.9,29.69,NW,325,2.0,2.0,27,0.00,,,0.00,0,Wunderground v.1.15,2013-07-10 03:02:00,
2013-07-09 20:12:00,73.4,37.4,29.69,NW,320,2.0,5.0,27,0.00,,,0.00,0,Wunderground v.1.15,2013-07-10 03:12:00,
2013-07-09 20:22:00,73.1,37.1,29.70,NNW,343,3.0,3.0,27,0.00,,,0.00,0,Wunderground v.1.15,2013-07-10 03:22:00,
2013-07-09 20:32:00,72.8,36.9,29.70,NNW,334,2.0,2.0,27,0.00,,,0.00,0,Wunderground v.1.15,2013-07-10 03:32:00,
2013-07-09 20:42:00,72.6,35.7,29.71,NW,325,2.0,4.0,26,0.00,,,0.00,0,Wunderground v.1.15,2013-07-10 03:42:00,
2013-07-09 20:52:00,73.0,35.1,29.71,NW,325,2.0,3.0,25,0.00,,,0.00,0,Wunderground v.1.15,2013-07-10 03:52:00,
2013-07-09 21:02:00,73.6,34.6,29.71,NNW,330,3.0,5.0,24,0.00,,,0.00,0,Wunderground v.1.15,2013-07-10 04:02:00,
2013-07-09 21:12:00,73.8,35.8,29.72,NW,325,1.0,1.0,25,0.00,,,0.00,0,Wunderground v.1.15,2013-07-10 04:12:00,
2013-07-09 21:22:00,72.5,35.6,29.72,ESE,106,1.0,1.0,26,0.00,,,0.00,0,Wunderground v.1.15,2013-07-10 04:22:00,
2013-07-09 21:32:00,71.7,35.0,29.73,SW,227,1.0,1.0,26,0.00,,,0.00,0,Wunderground v.1.15,2013-07-10 04:32:00,
2013-07-09 21:42:00,72.2,35.4,29.72,West,264,0.0,0.0,26,0.00,,,0.00,0,Wunderground v.1.15,2013-07-10 04:42:00,
2013-07-09 21:52:00,69.7,37.7,29.73,West,278,0.0,0.0,31,0.00,,,0.00,0,Wunderground v.1.15,2013-07-10 04:52:00,
2013-07-09 22:02:00,67.6,38.2,29.73,NW,304,1.0,2.0,34,0.00,,,0.00,0,Wunderground v.1.15,2013-07-10 05:02:00,
2013-07-09 22:12:00,69.4,37.4,29.73,WNW,295,1.0,1.0,31,0.00,,,0.00,0,Wunderground v.1.15,2013-07-10 05:12:00,
2013-07-09 22:22:00,68.2,38.0,29.73,WNW,295,0.0,0.0,33,0.00,,,0.00,0,Wunderground v.1.15,2013-07-10 05:22:00,
2013-07-09 22:32:00,66.3,37.8,29.73,ESE,111,0.0,0.0,35,0.00,,,0.00,0,Wunderground v.1.15,2013-07-10 05:32:00,
2013-07-09 22:42:00,64.9,39.3,29.73,SSW,195,0.0,0.0,39,0.00,,,0.00,0,Wunderground v.1.15,2013-07-10 05:42:00,
2013-07-09 22:52:00,64.4,40.2,29.73,SW,228,1.0,1.0,41,0.00,,,0.00,0,Wunderground v.1.15,2013-07-10 05:52:00,
2013-07-09 23:02:00,62.7,41.0,29.73,SW,228,0.0,0.0,45,0.00,,,0.00,0,Wunderground v.1.15,2013-07-10 06:02:00,
2013-07-09 23:12:00,62.1,41.6,29.73,SW,228,0.0,0.0,47,0.00,,,0.00,0,Wunderground v.1.15,2013-07-10 06:12:00,
2013-07-09 23:22:00,61.4,41.5,29.73,NNW,330,0.0,0.0,48,0.00,,,0.00,0,Wunderground v.1.15,2013-07-10 06:22:00,
2013-07-09 23:32:00,61.8,41.9,29.74,NNW,330,0.0,0.0,48,0.00,,,0.00,0,Wunderground v.1.15,2013-07-10 06:32:00,
2013-07-09 23:42:00,62.5,41.4,29.73,NNW,330,1.0,1.0,46,0.00,,,0.00,0,Wunderground v.1.15,2013-07-10 06:42:00,
2013-07-09 23:52:00,62.0,41.5,29.73,NNW,330,0.0,0.0,47,0.00,,,0.00,0,Wunderground v.1.15,2013-07-10 06:52:00,